Latest METARs, TAFs and NOTAMs for LIML


---------------------------------------------------------------------------
	(OBSERVATIONS)
LIML 110720Z VRB02KT 1600 BR OVC003 00/00 Q1000 NOSIG=
LIML 110650Z VRB01KT 2000 -DZ BR OVC003 00/00 Q1001 NOSIG=
LIML 110620Z VRB02KT 2500 -DZ OVC003 00/00 Q1000 NOSIG=
LIML 110550Z 22003KT 3000 -DZSN BKN003 OVC020 00/00 Q1001 NOSIG=
LIML 110520Z 21003KT 3000 -DZSN BKN003 OVC020 00/00 Q1001 NOSIG=
LIML 110450Z VRB02KT 3000 -DZSN BKN003 OVC020 00/00 Q1001 NOSIG=
---------------------------------------------------------------------------
	(FC)
Sorry, FC For LIML Not Found
---------------------------------------------------------------------------
	(TERMINAL AREA FORECAST)
LIML 110500Z 1106/1206 VRB05KT 2500 SN BKN010 BKN040
    BECMG 1107/1109 5000 RA
    BECMG 1119/1121 3000 BR
    TEMPO 1200/1206 0500 FG BKN003=
---------------------------------------------------------------------------
	(NOTAMS)


LIML A1506/16 REF AOC TYPE B NR ML 4/0 NEW OBSTACLE ERECTED CRANE
    PENETRATING INNER HORIZONTAL SURFACE PSN COORD (WGS-84):
    452707.3N 0091500.4E MAX ELEV AGL 52.0M/170.6FT MAX ELEV
    AMSL 160.0M/524.9FT ROTATING JIB 45M DAY ICAO SGL PROVIDED.
    15 MAR 00:00 2016 UNTIL PERM. CREATED: 14 MAR 16:07 2016

LIML A2417/17 REF AOC TYPE B NR ML 4/0 NEW OBSTACLE ERECTED TWO
    CRANES PENETRATING INNER HORIZONTAL SURFACE - PSN COORD WGS-84:
    452845.8N 0091443.3E MAX ELEV AGL 49.5M/162.4FT MAX ELEV
    AMSL 165.0M/541.3FT ROTATING JIB 50M DAY ICAO SGL PROVIDED
    - PSN COORD WGS-84: 452844.3N 0091442.4E MAX ELEV AGL 42.5M/139.4FT
    MAX ELEV AMSL 158.0M/518.4FT ROTATING JIB 40M DAY ICAO SGL
    PROVIDED. 20 APR 00:00 2017 UNTIL PERM. CREATED: 19 APR 06:57
    2017

LIML A2805/17 REF AIP AD 2 LIML 1-8 ITEM 19 'RADIO NAVIGATION
    AND LANDING AIDS' REFERRING TO VOR/DME 'TOP' FREQ 114.50MHZ
    CH 92X COLUMN 5 'ANTENNA SITE COORDINATES (WGS84)' CHANGE
    DME COORD TO READ: DME 445531.0N 0075141.9E COLUMN 7 'DESIGNATED
    OPERATIONAL COVERAGE LIMITATION' MODIFY LIMITATIONS TO READ:
    SECTOR 015DEG/100DEG AT 40NM MRA 4000FT SECTOR 100DEG/160DEG
    AT 40NM MRA 6000FT SECTOR 160DEG/230DEG AT 40NM MRA 10000FT
    SECTOR 230DEG/340DEG AT 40NM MRA 15000FT SECTOR 340DEG/015DEG
    AT 40NM MRA 10000FT. 05 MAY 14:57 2017 UNTIL PERM. CREATED:
    05 MAY 14:57 2017

LIML A3860/16 REF AIP AD 2 LIML 3-1 (AOC ICAO TYPE A NR ML A1
    4/0) OBSTACLE CRANE PSN 3951.2M AFTER THR36 AND 338.9M RIGHT
    RCL ON TAKE- OFF DIRECTION, COORD (WGS-84) 452812.0N 0091643.4E
    AMSL 134.5M/441.3FT COMPLETELY WITHDRAWN. 09 JUN 07:26 2016
    UNTIL PERM. CREATED: 09 JUN 07:26 2016

LIML A5000/17 REF AIP AD 2 LIML 3-1 NEW OBSTACLE ERECTED CRANE
    PENETRATING TAKE OFF FLIGHT PATH AREA RWY18 PSN 4945.9M AFTER
    THR18 AND 265.8M RIGHT RCL ON TAKE OFF DIRECTION COORD (WGS-84):
    452441.9N 0091638.1E MAX ELEV AGL 44.9M/147.3FT MAX ELEV
    AMSL 139.0M/456.0FT ROTATING JIB 50.0M DAY ICAO SIGNAL PROVIDED.
    18 AUG 00:00 2017 UNTIL PERM. CREATED: 25 JUL 10:13 2017

LIML A5278/17 REF AIP AD 2 LIML 1-7 TABLE 19 'RADIO NAVIGATION
    AND LANDING AIDS' GENOVA VOR/DME 'GEN' FREQ 112.80MHZ CH
    75X COLUMN 5 'ANTENNA SITE COORDINATES (WGS84)' CHANGE TO
    READ: VOR 442528.0N 0090456.4E DME 442528.0N 0090457.2E COLUMN
    6 'ELEVATION OF DME ANTENNA' CHANGE TO READ: 893M AMSL. 09
    AUG 09:01 2017 UNTIL PERM. CREATED: 08 AUG 13:05 2017

LIML A7161/17 RUNWAY 17/35 CLOSED AND USED AS PARKING AREA. RMK:
    HEL/FATO NOT AFFECTED. REF AIP AD 2 LIML 2-1. 26 OCT 10:30
    2017 UNTIL 19 JAN 10:00 2018. CREATED: 26 OCT 10:30 2017

LIML A7203/17 LANDING AND TKOF NOT ALLOWED TO VFR FIXED WING
    ACFT. TFC NOT AFFECTED: MIL, STATE, HUMANITARIAN AND HOSPITAL
    FLIGHT. REF AIP AD 2 LIML 1-14. DAILY 0501-0900 AND 1101-1400
    AND 1601-2200, 29 OCT 05:01 2017 UNTIL 19 JAN 22:00 2018.
    CREATED: 27 OCT 07:29 2017

LIML A7302/16 REF AOC TYPE B NR ML 4/0 NEW OBSTACLE POLE ERECTED
    PENETRATING CONICAL SURFACE PSN COORD (WGS-84): 452858.8N
    0091428.4E MAX ELEV AGL 37.6M/123.3FT MAX ELEV AMSL 155.8M/511.1FT
    ICAO SIGNAL UNPROVIDED. 17 OCT 13:54 2016 UNTIL PERM. CREATED:
    17 OCT 13:53 2016

LIML A7313/17 REF AIP AD 2 LIML 1-7 TABLE 19 'RADIO NAVIGATION
    AND LANDING AIDS' VOR/DME 'TOP' FREQ 114.50MHZ CH 92X COLUMN
    8 'REMARKS' AMENDED AS FOLLOWS: REMARKS 2) DELETED. 31 OCT
    11:04 2017 UNTIL PERM. CREATED: 31 OCT 11:04 2017

LIML A7595/17 REF AIP AD 2 LIML 2-7 AIRCRAFT PARKING DOCKING
    CHART-NORTH APRON, ACFT STAND 66 CHG PSN IN NEW COORD (WGS-84)
    452710.70N0091647.50E. 09 NOV 00:52 2017 UNTIL PERM. CREATED:
    09 NOV 00:52 2017

LIML A7993/17 TRIGGER NOTAM-PERM AIP AIRAC AMDT 12/17 EFFECTIVE
    DATE 04 JAN 2018 MILANO/LINATE AD - AERODROME OBSTACLES CHART
    TYPE 'A' AND 'B' UPDATED - PRECISION APPROACH TERRAIN CHART
    UPDATED AIRAC IS POSTED AND AVBL ON WEBSITE WWW.ENAV.IT.
    04 JAN 00:00 2018 UNTIL 17 JAN 23:59 2018. CREATED: 23 NOV
    15:41 2017

LIML A8003/17 ACFT STANDS FROM 61 TO 67 CLSD DUE TO WIP RMK:
    ICAO SIGNALS PROVIDED REF AIP AD 2 LIML 2-7. 24 NOV 04:45
    2017 UNTIL 15 DEC 22:45 2017. CREATED: 23 NOV 20:15 2017

LIML A8004/17 APN TWY Z BTN ACFT STAND 68 AND TWY F CLSD DUE
    TO WIP RMK: ICAO SIGNALS PROVIDED REF AIP AD 2 LIML 2-7.
    24 NOV 04:45 2017 UNTIL 15 DEC 22:45 2017. CREATED: 23 NOV
    20:52 2017

LIML A8098/17 AIRCRAFT STANDS 70 AND 72 CLOSED DUE TO WIP ICAO
    SIGNALS PROVIDED REF AIP AD 2 LIML 2-7. 28 NOV 09:24 2017
    UNTIL 30 DEC 22:45 2017. CREATED: 28 NOV 09:24 2017

LIML A8155/17 APRON TAXIWAY 'T' CENTRE LINE LIGHTS BTN ACFT STAND
    '68' AND APRON TWY 'Z' NOT AVBL. FOLLOW-ME CAR ASSISTANCE
    MANDATORY DURING NIGHT HR OR LVP IN FORCE. REF AIP AD 2 LIML
    2-7. 30 NOV 13:10 2017 UNTIL 30 DEC 22:44 2017. CREATED:
    30 NOV 13:10 2017

LIML A8276/17 RWY 18/36, HEL/FATO AND ALL TWY CLSD DUE TO MAINT
    WORKS. REF AIP AD 2 LIML 2-1. DAILY 2245-0445, 10 DEC 22:45
    2017 UNTIL 16 DEC 04:45 2017. CREATED: 06 DEC 15:47 2017

LIML A8287/17 GENOVA NDB 'GEN' FREQ 318.00KHZ ON TEST, DO NOT
    USE REF AIP AD 2 LIML 1-7. 06 DEC 17:11 2017 UNTIL 05 MAR
    23:59 2018 ESTIMATED. CREATED: 06 DEC 17:11 2017

LIML A8351/17 INSTRUMENT LANDING SYSTEM (ILS) RWY36 ON TEST DUE
    TO FLTCK, DO NOT USE FALSE INDICATION POSSIBLE. REF AIP AD
    2 LIML 1-7. 11 DEC 10:00 2017 UNTIL 11 DEC 12:00 2017. CREATED:
    07 DEC 12:19 2017

LIML A8352/17 INSTRUMENT LANDING SYSTEM (ILS) RWY36 ON TEST DUE
    TO FLTCK, DO NOT USE FALSE INDICATION POSSIBLE. REF AIP AD
    2 LIML 1-7. 11 DEC 13:30 2017 UNTIL 11 DEC 15:30 2017. CREATED:
    07 DEC 12:19 2017

LIML A8386/17 DE-ICING FLUID AVAILABLE 'KILFROST ABC-K PLUS TYPE
    II (10, 50, 100 PER CENT)' INSTEAD OF 'KILFROST ABC3 TYPE
    II (10, 50, 100 PER CENT)' REF AIP AD2 LIML. 10 DEC 10:19
    2017 UNTIL 24 DEC 22:59 2017. CREATED: 10 DEC 10:19 2017

---------------------------------------------------------------------------